Time;durP1;ratioP1;P1;durP2;ratioP2;P2;SDS_P1;SDS_P2;PMS_P1;PMS_P2;Temp;Humidity;BMP_temperature;BMP_pressure;BME280_temperature;BME280_humidity;BME280_pressure;Samples;Min_cycle;Max_cycle;Signal;HPM_P1;HPM_P2
2021/12/16 00:05:10;;;;;;;;;;;11.00;99.90;;;;;;5016068;28;20285;-65
2021/12/16 00:07:38;;;;;;;;;;;10.90;99.90;;;;;;5015763;28;19909;-65
2021/12/16 00:10:32;;;;;;;;;;;11.00;99.90;;;;;;5032464;28;20184;-65
2021/12/16 00:34:28;;;;;;;;;;;11.00;99.90;;;;;;5040444;28;19913;-65
2021/12/16 00:36:53;;;;;;;;;;;11.00;99.90;;;;;;5039597;28;19963;-65
2021/12/16 00:39:22;;;;;;;;;;;11.10;99.90;;;;;;5040732;28;19964;-65
2021/12/16 00:41:51;;;;;;;;;;;11.10;99.90;;;;;;5039561;28;19924;-65
2021/12/16 00:47:25;;;;;;;;;;;11.10;99.90;;;;;;5040163;28;20008;-65
2021/12/16 00:49:50;;;;;;;;;;;11.00;99.90;;;;;;5039870;28;19923;-65
2021/12/16 00:55:22;;;;;;;;;;;11.10;99.90;;;;;;5053666;28;19909;-65
2021/12/16 00:57:50;;;;;;;;;;;11.10;99.90;;;;;;5039737;28;19909;-65
2021/12/16 01:00:17;;;;;;;;;;;11.20;99.90;;;;;;5071843;28;19917;-65
2021/12/16 01:49:34;;;;;;;;;;;10.30;99.90;;;;;;5038050;28;19975;-65
2021/12/16 01:52:23;;;;;;;;;;;10.50;99.90;;;;;;5038974;28;19924;-65
2021/12/16 01:55:07;;;;;;;;;;;10.60;99.90;;;;;;5039386;28;19909;-65
2021/12/16 01:57:41;;;;;;;;;;;10.50;99.90;;;;;;5038114;28;20280;-65
2021/12/16 02:00:30;;;;;;;;;;;10.50;99.90;;;;;;5037995;28;19912;-65
2021/12/16 02:03:05;;;;;;;;;;;10.60;99.90;;;;;;5037645;28;19920;-64
2021/12/16 02:05:51;;;;;;;;;;;10.60;99.90;;;;;;5021555;28;19948;-65
2021/12/16 02:08:22;;;;;;;;;;;10.50;99.90;;;;;;5038023;28;20230;-67
2021/12/16 02:10:59;;;;;;;;;;;10.50;99.90;;;;;;5037704;28;19913;-65
2021/12/16 02:37:34;;;;;;;;;;;11.00;99.90;;;;;;5037337;28;19962;-65
2021/12/16 02:40:01;;;;;;;;;;;11.00;99.90;;;;;;5070531;28;20192;-65
2021/12/16 02:42:49;;;;;;;;;;;11.00;99.90;;;;;;5037174;28;19913;-66
2021/12/16 02:50:44;;;;;;;;;;;11.10;99.90;;;;;;5038387;28;19917;-66
2021/12/16 02:53:10;;;;;;;;;;;11.20;99.90;;;;;;5037880;28;20252;-65
2021/12/16 02:55:36;;;;;;;;;;;11.20;99.90;;;;;;5053554;28;19925;-65
2021/12/16 02:58:02;;;;;;;;;;;11.20;99.90;;;;;;5036973;28;19917;-65
2021/12/16 03:00:30;;;;;;;;;;;11.20;99.90;;;;;;5036894;28;19923;-67
2021/12/16 03:02:55;;;;;;;;;;;11.20;99.90;;;;;;5036962;28;19909;-65
2021/12/16 03:05:22;;;;;;;;;;;11.10;99.90;;;;;;5020449;28;19928;-65
2021/12/16 03:07:49;;;;;;;;;;;11.10;99.90;;;;;;5036858;28;19924;-66
2021/12/16 03:13:51;;;;;;;;;;;11.10;99.90;;;;;;5037964;28;20199;-65
2021/12/16 03:18:52;;;;;;;;;;;11.10;99.90;;;;;;5053133;28;20016;-66
2021/12/16 03:21:27;;;;;;;;;;;11.00;99.90;;;;;;5036693;28;20228;-66
2021/12/16 03:37:15;;;;;;;;;;;11.10;99.90;;;;;;5037341;28;19917;-66
2021/12/16 03:39:43;;;;;;;;;;;11.00;99.90;;;;;;5037392;28;19976;-66
2021/12/16 03:42:09;;;;;;;;;;;10.80;99.90;;;;;;5053059;28;19919;-65
2021/12/16 03:44:52;;;;;;;;;;;10.80;99.90;;;;;;5036502;28;19909;-66
2021/12/16 03:47:20;;;;;;;;;;;10.90;99.90;;;;;;5036440;28;19917;-66
2021/12/16 03:49:48;;;;;;;;;;;11.00;99.90;;;;;;5036311;28;19916;-66
2021/12/16 03:52:13;;;;;;;;;;;11.10;99.90;;;;;;5036297;28;19923;-66
2021/12/16 03:54:49;;;;;;;;;;;11.00;99.90;;;;;;5036358;28;19932;-65
2021/12/16 03:57:17;;;;;;;;;;;11.10;99.90;;;;;;5036260;28;19909;-66
2021/12/16 03:59:45;;;;;;;;;;;11.00;99.90;;;;;;5036177;28;19909;-65
2021/12/16 04:02:37;;;;;;;;;;;11.10;99.90;;;;;;5028879;28;19913;-66
2021/12/16 04:05:04;;;;;;;;;;;11.20;99.90;;;;;;5036192;28;20261;-66
2021/12/16 04:07:35;;;;;;;;;;;11.20;99.90;;;;;;5022690;28;19921;-66
2021/12/16 04:10:32;;;;;;;;;;;11.10;99.90;;;;;;5026471;28;20372;-66
2021/12/16 04:13:00;;;;;;;;;;;11.10;99.90;;;;;;5023845;28;20288;-65
2021/12/16 04:15:26;;;;;;;;;;;11.20;99.90;;;;;;5040007;28;19974;-65
2021/12/16 04:17:53;;;;;;;;;;;11.20;99.90;;;;;;5023704;28;19994;-65
2021/12/16 04:20:19;;;;;;;;;;;11.20;99.90;;;;;;5023389;28;19916;-65
2021/12/16 04:22:46;;;;;;;;;;;11.10;99.90;;;;;;5039982;28;19986;-65
2021/12/16 04:25:20;;;;;;;;;;;11.20;99.90;;;;;;5039830;28;20224;-65
2021/12/16 04:27:47;;;;;;;;;;;11.10;99.90;;;;;;5072930;28;19909;-65
2021/12/16 04:30:15;;;;;;;;;;;11.10;99.90;;;;;;5056396;28;20215;-66
2021/12/16 04:32:42;;;;;;;;;;;11.20;99.90;;;;;;5055872;28;20251;-66
2021/12/16 04:35:09;;;;;;;;;;;11.20;99.90;;;;;;5056413;28;19909;-66
2021/12/16 04:37:35;;;;;;;;;;;11.20;99.90;;;;;;5039424;28;19913;-66
2021/12/16 04:40:03;;;;;;;;;;;11.30;99.90;;;;;;5039549;28;20238;-66
2021/12/16 04:42:31;;;;;;;;;;;11.30;99.90;;;;;;5039458;28;19909;-66
2021/12/16 04:44:57;;;;;;;;;;;11.20;99.90;;;;;;5039487;28;19913;-66
2021/12/16 04:47:22;;;;;;;;;;;11.10;99.90;;;;;;5040649;28;19913;-66
2021/12/16 04:49:48;;;;;;;;;;;11.00;99.90;;;;;;5039296;28;19921;-66
2021/12/16 04:52:17;;;;;;;;;;;11.00;99.90;;;;;;5039328;28;19913;-66
2021/12/16 04:54:43;;;;;;;;;;;11.10;99.90;;;;;;5039365;28;20370;-66
2021/12/16 04:57:09;;;;;;;;;;;11.00;99.90;;;;;;5039207;28;19909;-66
2021/12/16 04:59:36;;;;;;;;;;;11.00;99.90;;;;;;5039154;28;19948;-66
2021/12/16 05:02:14;;;;;;;;;;;11.10;99.90;;;;;;5022664;28;19996;-66
2021/12/16 05:05:10;;;;;;;;;;;11.00;99.90;;;;;;5030686;28;19909;-66
2021/12/16 05:07:37;;;;;;;;;;;11.00;99.90;;;;;;5039042;28;19909;-66
2021/12/16 05:10:26;;;;;;;;;;;11.10;99.90;;;;;;5038953;28;19908;-66
2021/12/16 05:13:22;;;;;;;;;;;11.10;99.90;;;;;;5037096;28;19913;-66
2021/12/16 05:15:47;;;;;;;;;;;11.20;99.90;;;;;;5039677;28;19913;-66
2021/12/16 05:18:20;;;;;;;;;;;11.20;99.90;;;;;;5038826;28;20323;-66
2021/12/16 05:20:50;;;;;;;;;;;11.10;99.90;;;;;;5038787;28;19920;-66
2021/12/16 05:28:57;;;;;;;;;;;10.90;99.90;;;;;;5054012;28;19924;-66
2021/12/16 05:31:24;;;;;;;;;;;10.80;99.90;;;;;;5038624;28;19955;-67
2021/12/16 05:33:52;;;;;;;;;;;10.90;99.90;;;;;;5038555;28;19913;-66
2021/12/16 05:36:18;;;;;;;;;;;10.90;99.90;;;;;;5038542;28;19905;-66
2021/12/16 05:38:44;;;;;;;;;;;10.90;99.90;;;;;;5038485;28;20323;-67
2021/12/16 05:41:12;;;;;;;;;;;11.00;99.90;;;;;;5021908;28;19925;-66
2021/12/16 05:43:38;;;;;;;;;;;11.00;99.90;;;;;;5038361;28;19971;-66
2021/12/16 05:46:05;;;;;;;;;;;11.10;99.90;;;;;;5055012;28;19909;-66
2021/12/16 05:48:33;;;;;;;;;;;11.00;99.90;;;;;;5038082;28;19923;-66
2021/12/16 05:51:01;;;;;;;;;;;11.10;99.90;;;;;;5038163;28;19909;-66
2021/12/16 05:53:28;;;;;;;;;;;11.00;99.90;;;;;;5038157;28;20007;-66
2021/12/16 05:55:54;;;;;;;;;;;11.00;99.90;;;;;;5038140;28;20303;-66
2021/12/16 05:58:23;;;;;;;;;;;11.10;99.90;;;;;;5038057;28;20196;-66
2021/12/16 06:00:52;;;;;;;;;;;11.10;99.90;;;;;;5038099;28;20065;-67
2021/12/16 06:03:18;;;;;;;;;;;11.00;99.90;;;;;;5038026;28;19909;-66
2021/12/16 06:05:45;;;;;;;;;;;11.00;99.90;;;;;;5037996;28;19920;-66
2021/12/16 06:08:11;;;;;;;;;;;11.00;99.90;;;;;;5037933;28;19913;-66
2021/12/16 06:13:06;;;;;;;;;;;11.00;99.90;;;;;;5038522;28;19909;-66
2021/12/16 06:15:46;;;;;;;;;;;11.00;99.90;;;;;;5038579;28;20011;-67
2021/12/16 06:28:51;;;;;;;;;;;10.90;99.90;;;;;;5037209;28;20295;-67
2021/12/16 06:31:16;;;;;;;;;;;10.90;99.90;;;;;;5038569;28;19947;-67
2021/12/16 06:33:43;;;;;;;;;;;10.90;99.90;;;;;;5038287;28;19916;-65
2021/12/16 06:36:08;;;;;;;;;;;11.00;99.90;;;;;;5038453;28;19909;-65
2021/12/16 06:38:34;;;;;;;;;;;11.10;99.90;;;;;;5037370;28;19913;-66
2021/12/16 06:41:15;;;;;;;;;;;11.10;99.90;;;;;;5037552;28;20413;-66
2021/12/16 06:44:16;;;;;;;;;;;11.00;99.90;;;;;;5035209;28;20304;-66
2021/12/16 06:46:44;;;;;;;;;;;11.10;99.90;;;;;;5037283;28;19909;-66
2021/12/16 06:49:13;;;;;;;;;;;11.00;99.90;;;;;;5037723;28;19987;-65
2021/12/16 06:54:15;;;;;;;;;;;11.10;99.90;;;;;;5068865;28;19944;-66
2021/12/16 06:56:50;;;;;;;;;;;11.00;99.90;;;;;;5037591;28;20296;-66
2021/12/16 06:59:27;;;;;;;;;;;11.00;99.90;;;;;;5037155;28;20269;-66
2021/12/16 07:02:06;;;;;;;;;;;10.90;99.90;;;;;;5036952;28;19913;-66
2021/12/16 07:04:32;;;;;;;;;;;10.90;99.90;;;;;;5036862;28;19909;-67
2021/12/16 07:06:58;;;;;;;;;;;11.00;99.90;;;;;;5036646;28;19952;-67
2021/12/16 07:09:24;;;;;;;;;;;11.00;99.90;;;;;;5037509;28;19963;-66
2021/12/16 07:11:52;;;;;;;;;;;11.00;99.90;;;;;;5036600;28;20322;-66
2021/12/16 07:14:19;;;;;;;;;;;11.10;99.90;;;;;;5036612;28;20029;-65
2021/12/16 07:16:47;;;;;;;;;;;11.20;99.90;;;;;;5037397;28;19932;-65
2021/12/16 07:19:13;;;;;;;;;;;11.20;99.90;;;;;;5037317;28;19920;-65
2021/12/16 07:21:39;;;;;;;;;;;11.20;99.90;;;;;;5037223;28;19956;-66
2021/12/16 07:24:09;;;;;;;;;;;11.20;99.90;;;;;;5037369;28;19909;-64
2021/12/16 07:26:35;;;;;;;;;;;11.20;99.90;;;;;;5036903;28;19909;-64
2021/12/16 07:29:01;;;;;;;;;;;11.30;99.90;;;;;;5037341;28;19913;-65
2021/12/16 07:31:28;;;;;;;;;;;11.20;99.90;;;;;;5069563;28;19953;-62
2021/12/16 07:33:54;;;;;;;;;;;11.60;99.90;;;;;;5069199;28;19994;-66
2021/12/16 07:36:21;;;;;;;;;;;12.20;99.90;;;;;;5036934;28;19913;-64
2021/12/16 07:38:47;;;;;;;;;;;11.90;99.90;;;;;;5036580;28;20291;-64
2021/12/16 07:41:13;;;;;;;;;;;11.80;99.90;;;;;;5036653;28;19912;-64
2021/12/16 07:46:24;;;;;;;;;;;11.50;99.90;;;;;;5041241;28;19964;-64
2021/12/16 07:48:50;;;;;;;;;;;11.50;99.90;;;;;;5041222;28;20255;-64
2021/12/16 07:51:16;;;;;;;;;;;11.70;99.90;;;;;;5040345;28;19999;-64
2021/12/16 07:53:41;;;;;;;;;;;11.40;99.90;;;;;;5041044;28;19999;-64
2021/12/16 07:56:08;;;;;;;;;;;11.30;99.90;;;;;;5041096;28;19949;-65
2021/12/16 07:58:34;;;;;;;;;;;11.20;99.90;;;;;;5040205;28;19909;-65
2021/12/16 08:01:00;;;;;;;;;;;11.20;99.90;;;;;;5040902;28;19966;-64
2021/12/16 08:03:33;;;;;;;;;;;11.20;99.90;;;;;;5040855;28;19921;-64
2021/12/16 08:05:59;;;;;;;;;;;11.30;99.90;;;;;;5040843;28;19920;-64
2021/12/16 08:08:25;;;;;;;;;;;11.20;99.90;;;;;;5040588;28;19971;-64
2021/12/16 08:10:53;;;;;;;;;;;11.20;99.90;;;;;;5040212;28;20208;-65
2021/12/16 08:13:19;;;;;;;;;;;11.20;99.90;;;;;;5040726;28;19976;-66
2021/12/16 08:15:45;;;;;;;;;;;11.10;99.90;;;;;;5041002;28;19924;-65
2021/12/16 08:18:10;;;;;;;;;;;11.00;99.90;;;;;;5040614;28;19916;-65
2021/12/16 08:20:36;;;;;;;;;;;10.90;99.90;;;;;;5040457;28;19959;-65
2021/12/16 08:23:02;;;;;;;;;;;11.00;99.90;;;;;;5040539;28;19989;-65
2021/12/16 08:25:29;;;;;;;;;;;11.20;99.90;;;;;;5040464;28;20284;-65
2021/12/16 08:27:55;;;;;;;;;;;11.20;99.90;;;;;;5040571;28;19970;-65
2021/12/16 08:30:23;;;;;;;;;;;11.30;99.90;;;;;;5039753;28;20003;-64
2021/12/16 08:32:49;;;;;;;;;;;11.40;99.90;;;;;;5040430;28;20181;-64
2021/12/16 08:35:15;;;;;;;;;;;11.30;99.90;;;;;;5040447;28;19909;-65
2021/12/16 08:37:41;;;;;;;;;;;11.20;99.90;;;;;;5040798;28;19928;-65
2021/12/16 08:40:11;;;;;;;;;;;11.30;99.90;;;;;;5040189;28;20388;-64
2021/12/16 08:42:36;;;;;;;;;;;11.30;99.90;;;;;;5040170;28;19995;-65
2021/12/16 08:45:04;;;;;;;;;;;11.40;99.90;;;;;;5056248;28;19913;-63
2021/12/16 08:47:31;;;;;;;;;;;11.30;99.90;;;;;;5039453;28;20007;-64
2021/12/16 08:49:56;;;;;;;;;;;11.30;99.90;;;;;;5039944;28;19978;-64
2021/12/16 08:52:23;;;;;;;;;;;11.40;99.90;;;;;;5039921;28;19913;-65
2021/12/16 08:54:49;;;;;;;;;;;11.50;99.90;;;;;;5039946;28;20003;-65
2021/12/16 08:57:15;;;;;;;;;;;11.50;99.90;;;;;;5039989;28;19979;-65
2021/12/16 08:59:43;;;;;;;;;;;11.60;99.90;;;;;;5039829;28;20284;-66
2021/12/16 09:02:09;;;;;;;;;;;11.50;99.90;;;;;;5039152;28;19912;-65
2021/12/16 09:04:37;;;;;;;;;;;11.40;99.90;;;;;;5039962;28;19909;-64
2021/12/16 09:07:04;;;;;;;;;;;11.50;99.90;;;;;;5039872;28;19955;-65
2021/12/16 09:09:33;;;;;;;;;;;11.50;99.90;;;;;;5039692;28;19905;-65
2021/12/16 09:12:10;;;;;;;;;;;11.50;99.90;;;;;;5039550;28;19909;-65
2021/12/16 09:14:37;;;;;;;;;;;11.50;99.90;;;;;;5038862;28;20269;-65
2021/12/16 09:17:04;;;;;;;;;;;11.60;99.90;;;;;;5039511;28;19913;-65
2021/12/16 09:19:30;;;;;;;;;;;11.50;99.90;;;;;;5039703;28;19920;-65
2021/12/16 09:21:56;;;;;;;;;;;11.40;99.90;;;;;;5039418;28;19912;-63
2021/12/16 09:24:22;;;;;;;;;;;11.40;99.90;;;;;;5040121;28;19928;-64
2021/12/16 09:26:48;;;;;;;;;;;11.50;99.90;;;;;;5072101;28;19921;-64
2021/12/16 09:29:13;;;;;;;;;;;11.60;99.90;;;;;;5039454;28;19913;-64
2021/12/16 09:31:39;;;;;;;;;;;11.90;99.90;;;;;;5039475;28;19913;-64
2021/12/16 09:34:08;;;;;;;;;;;11.90;99.90;;;;;;5039371;28;19913;-65
2021/12/16 09:36:35;;;;;;;;;;;11.80;99.90;;;;;;5039298;28;20284;-64
2021/12/16 09:39:02;;;;;;;;;;;12.00;99.90;;;;;;5039316;28;20177;-64
2021/12/16 09:41:28;;;;;;;;;;;12.10;99.90;;;;;;5039191;28;19909;-64
2021/12/16 09:43:55;;;;;;;;;;;12.00;99.90;;;;;;5039213;28;20208;-65
2021/12/16 09:46:23;;;;;;;;;;;12.20;99.90;;;;;;5072144;28;19921;-63
2021/12/16 09:48:49;;;;;;;;;;;12.40;99.90;;;;;;5038858;28;19913;-63
2021/12/16 09:51:21;;;;;;;;;;;12.40;99.90;;;;;;5039046;28;19920;-64
2021/12/16 09:53:47;;;;;;;;;;;12.40;99.90;;;;;;5039074;28;19912;-63
2021/12/16 09:56:12;;;;;;;;;;;12.60;99.90;;;;;;5038942;28;19913;-63
2021/12/16 09:58:41;;;;;;;;;;;12.70;99.90;;;;;;5038800;28;20289;-62
2021/12/16 10:01:09;;;;;;;;;;;12.70;99.90;;;;;;5038996;28;19909;-63
2021/12/16 10:03:35;;;;;;;;;;;12.70;99.90;;;;;;5038439;28;19913;-63
2021/12/16 10:06:01;;;;;;;;;;;12.80;99.90;;;;;;5038273;28;19912;-62
2021/12/16 10:08:28;;;;;;;;;;;12.80;99.90;;;;;;5038008;28;19920;-63
2021/12/16 10:10:54;;;;;;;;;;;12.90;99.90;;;;;;5037804;28;19913;-63
2021/12/16 10:13:30;;;;;;;;;;;12.90;99.90;;;;;;5038423;28;19924;-63
2021/12/16 10:18:35;;;;;;;;;;;12.80;99.90;;;;;;5038674;28;19913;-64
2021/12/16 10:21:03;;;;;;;;;;;12.90;99.90;;;;;;5038489;28;20022;-64
2021/12/16 10:23:30;;;;;;;;;;;13.00;99.90;;;;;;5037788;28;19909;-64
2021/12/16 10:25:59;;;;;;;;;;;13.10;99.90;;;;;;5038410;28;19909;-64
2021/12/16 10:28:26;;;;;;;;;;;13.20;99.90;;;;;;5038371;28;19983;-64
2021/12/16 10:31:04;;;;;;;;;;;13.00;99.90;;;;;;5038130;28;19940;-64
2021/12/16 10:33:41;;;;;;;;;;;13.10;99.90;;;;;;5037605;28;20216;-64
2021/12/16 10:36:09;;;;;;;;;;;13.10;99.90;;;;;;5037510;28;20119;-64
2021/12/16 10:38:40;;;;;;;;;;;13.00;99.90;;;;;;5038160;28;19966;-64
2021/12/16 10:41:07;;;;;;;;;;;12.90;99.90;;;;;;5037803;28;20192;-64
2021/12/16 10:43:35;;;;;;;;;;;13.00;99.90;;;;;;5038119;28;19909;-63
2021/12/16 10:46:08;;;;;;;;;;;13.10;99.90;;;;;;5038206;28;19913;-64
2021/12/16 10:48:44;;;;;;;;;;;13.60;99.90;;;;;;5037053;28;20288;-65
2021/12/16 10:51:18;;;;;;;;;;;13.90;99.90;;;;;;5037215;28;19924;-64
2021/12/16 10:54:03;;;;;;;;;;;13.60;99.90;;;;;;5037125;28;20281;-64
2021/12/16 10:56:39;;;;;;;;;;;13.50;99.90;;;;;;5037385;28;19979;-64
2021/12/16 10:59:05;;;;;;;;;;;13.40;99.90;;;;;;5037741;28;19919;-64
2021/12/16 11:01:49;;;;;;;;;;;13.70;99.90;;;;;;5037698;28;19916;-63
2021/12/16 11:04:19;;;;;;;;;;;14.20;99.90;;;;;;5036766;28;19913;-65
2021/12/16 11:06:56;;;;;;;;;;;14.50;99.90;;;;;;5036860;28;19952;-64
2021/12/16 11:09:25;;;;;;;;;;;14.80;99.90;;;;;;5037080;28;20299;-64
2021/12/16 11:12:04;;;;;;;;;;;15.20;99.90;;;;;;5037477;28;20000;-64
2021/12/16 11:14:30;;;;;;;;;;;16.00;99.90;;;;;;5037723;28;19909;-64
2021/12/16 11:16:57;;;;;;;;;;;15.70;99.90;;;;;;5037252;28;19919;-64
2021/12/16 11:19:39;;;;;;;;;;;16.10;99.90;;;;;;5037525;28;19909;-64
2021/12/16 11:22:10;;;;;;;;;;;16.60;99.90;;;;;;5069857;28;19924;-63
2021/12/16 11:24:35;;;;;;;;;;;17.20;99.90;;;;;;5036643;28;19909;-63
2021/12/16 11:27:22;;;;;;;;;;;17.30;99.90;;;;;;5037390;28;20249;-64
2021/12/16 11:29:47;;;;;;;;;;;17.30;99.90;;;;;;5036638;28;19919;-63
2021/12/16 11:32:32;;;;;;;;;;;16.90;99.90;;;;;;5053388;28;20292;-64
2021/12/16 11:34:58;;;;;;;;;;;16.10;99.90;;;;;;5037367;28;19913;-64
2021/12/16 11:37:23;;;;;;;;;;;15.00;99.90;;;;;;5037265;28;19963;-63
2021/12/16 11:39:49;;;;;;;;;;;14.30;99.90;;;;;;5037487;28;20323;-63
2021/12/16 11:42:15;;;;;;;;;;;14.10;99.90;;;;;;5036499;28;19920;-64
2021/12/16 11:44:42;;;;;;;;;;;14.00;99.90;;;;;;5037282;28;20196;-64
2021/12/16 11:47:08;;;;;;;;;;;14.20;99.90;;;;;;5037256;28;19909;-64
2021/12/16 11:49:41;;;;;;;;;;;14.50;99.90;;;;;;5036301;28;19917;-64
2021/12/16 11:52:10;;;;;;;;;;;14.60;99.90;;;;;;5037104;28;19909;-64
2021/12/16 11:54:46;;;;;;;;;;;14.60;99.90;;;;;;5036319;28;20250;-64
2021/12/16 11:57:14;;;;;;;;;;;14.60;99.90;;;;;;5036244;28;20280;-64
2021/12/16 11:59:42;;;;;;;;;;;14.70;99.90;;;;;;5036253;28;19916;-64
2021/12/16 12:02:19;;;;;;;;;;;14.70;99.90;;;;;;5036324;28;19912;-63
2021/12/16 12:04:45;;;;;;;;;;;14.60;99.90;;;;;;5037119;28;20281;-64
2021/12/16 12:07:12;;;;;;;;;;;14.80;99.90;;;;;;5036874;28;20003;-64
2021/12/16 12:09:41;;;;;;;;;;;14.90;99.90;;;;;;5036191;28;19916;-64
2021/12/16 12:12:07;;;;;;;;;;;14.80;99.90;;;;;;5037182;28;20286;-64
2021/12/16 12:14:34;;;;;;;;;;;14.80;99.90;;;;;;5037485;28;19924;-65
2021/12/16 12:17:09;;;;;;;;;;;14.80;99.90;;;;;;5036110;28;20338;-63
2021/12/16 12:19:40;;;;;;;;;;;14.90;99.90;;;;;;5036997;28;19909;-63
2021/12/16 12:22:06;;;;;;;;;;;14.90;99.90;;;;;;5036849;28;19913;-64
2021/12/16 12:24:34;;;;;;;;;;;14.90;99.90;;;;;;5019759;28;20192;-63
2021/12/16 12:27:04;;;;;;;;;;;15.00;99.90;;;;;;5036778;28;19909;-64
2021/12/16 12:29:31;;;;;;;;;;;15.10;99.90;;;;;;5040568;28;20196;-64
2021/12/16 12:32:03;;;;;;;;;;;15.20;99.90;;;;;;5040667;28;19937;-64
2021/12/16 12:34:30;;;;;;;;;;;15.20;99.90;;;;;;5040463;28;19959;-63
2021/12/16 12:36:56;;;;;;;;;;;15.20;99.90;;;;;;5072880;28;19949;-63
2021/12/16 12:39:25;;;;;;;;;;;15.30;99.90;;;;;;5039855;28;20261;-64
2021/12/16 12:41:51;;;;;;;;;;;15.50;99.90;;;;;;5040135;28;20023;-64
2021/12/16 12:44:16;;;;;;;;;;;15.60;99.90;;;;;;5040238;28;19913;-62
2021/12/16 12:46:43;;;;;;;;;;;15.70;99.90;;;;;;5040462;28;19963;-63
2021/12/16 12:49:11;;;;;;;;;;;15.80;99.90;;;;;;5039735;28;20395;-64
2021/12/16 12:51:38;;;;;;;;;;;15.80;99.90;;;;;;5040295;28;20277;-64
2021/12/16 12:54:19;;;;;;;;;;;16.00;99.90;;;;;;5040110;28;19920;-64
2021/12/16 12:56:45;;;;;;;;;;;15.90;99.90;;;;;;5039396;28;20196;-62
2021/12/16 12:59:12;;;;;;;;;;;15.90;99.90;;;;;;5040045;28;19913;-64
2021/12/16 13:01:44;;;;;;;;;;;15.90;99.90;;;;;;5055787;28;19916;-64
2021/12/16 13:04:13;;;;;;;;;;;15.80;99.90;;;;;;5039891;28;19920;-64
2021/12/16 13:06:49;;;;;;;;;;;15.70;99.90;;;;;;5039812;28;19909;-64
2021/12/16 13:09:42;;;;;;;;;;;15.60;99.90;;;;;;5039865;28;19946;-63
2021/12/16 13:12:36;;;;;;;;;;;15.40;99.90;;;;;;5040324;28;19920;-63
2021/12/16 13:15:21;;;;;;;;;;;15.30;99.90;;;;;;5041834;28;19941;-62
2021/12/16 13:29:28;;;;;;;;;;;14.90;99.90;;;;;;5039457;28;19909;-64
2021/12/16 13:32:11;;;;;;;;;;;14.90;99.90;;;;;;5039480;28;20192;-63
2021/12/16 13:34:48;;;;;;;;;;;14.70;99.90;;;;;;5038658;28;20184;-63
2021/12/16 13:37:22;;;;;;;;;;;14.60;99.90;;;;;;5039415;28;19913;-63
2021/12/16 13:39:49;;;;;;;;;;;14.50;99.90;;;;;;5039181;28;20284;-64
2021/12/16 13:42:15;;;;;;;;;;;14.40;99.90;;;;;;5038342;28;20188;-63
2021/12/16 13:44:50;;;;;;;;;;;14.30;99.90;;;;;;5039258;28;20003;-64
2021/12/16 13:59:47;;;;;;;;;;;13.80;99.90;;;;;;5038922;28;19924;-66
2021/12/16 14:06:34;;;;;;;;;;;13.60;99.90;;;;;;5038481;28;20007;-63
2021/12/16 14:09:12;;;;;;;;;;;13.50;99.90;;;;;;5037933;28;19909;-64
2021/12/16 14:14:23;;;;;;;;;;;13.30;99.90;;;;;;5038642;28;20242;-63
2021/12/16 14:25:19;;;;;;;;;;;13.00;99.90;;;;;;5038483;28;19909;-63
2021/12/16 14:34:42;;;;;;;;;;;12.70;99.90;;;;;;5038866;28;19955;-63
2021/12/16 14:36:49;;;;;;;;;;;12.60;99.90;;;;;;5037015;28;19975;-63
2021/12/16 14:47:58;;;;;;;;;;;12.20;99.90;;;;;;5016901;28;19946;-63
2021/12/16 14:50:26;;;;;;;;;;;12.20;99.90;;;;;;5031024;28;19932;-64
2021/12/16 14:52:52;;;;;;;;;;;12.20;99.90;;;;;;5037554;28;20284;-64
2021/12/16 14:55:18;;;;;;;;;;;12.10;99.90;;;;;;5037746;28;19909;-64
2021/12/16 14:57:46;;;;;;;;;;;12.10;99.90;;;;;;5037841;28;19908;-63
2021/12/16 15:00:12;;;;;;;;;;;11.90;99.90;;;;;;5038358;28;19909;-62
2021/12/16 15:02:40;;;;;;;;;;;11.80;99.90;;;;;;5037737;28;19920;-62
2021/12/16 15:05:23;;;;;;;;;;;11.70;99.90;;;;;;5038187;28;20242;-63
2021/12/16 15:07:49;;;;;;;;;;;11.70;99.90;;;;;;5037595;28;20296;-63
2021/12/16 15:10:16;;;;;;;;;;;11.60;99.90;;;;;;5037703;28;19909;-62
2021/12/16 15:12:50;;;;;;;;;;;11.60;99.90;;;;;;5037593;28;20247;-63
2021/12/16 15:40:14;;;;;;;;;;;10.60;99.90;;;;;;5037158;28;19909;-64
2021/12/16 15:42:50;;;;;;;;;;;10.60;99.90;;;;;;5037072;28;19920;-63
2021/12/16 15:45:25;;;;;;;;;;;10.50;99.90;;;;;;5036284;28;19916;-63
2021/12/16 15:47:54;;;;;;;;;;;10.40;99.90;;;;;;5036949;28;19920;-63
2021/12/16 15:50:23;;;;;;;;;;;10.50;99.90;;;;;;5036098;28;19917;-64
2021/12/16 15:52:50;;;;;;;;;;;10.50;99.90;;;;;;5036832;28;19909;-63
2021/12/16 15:55:21;;;;;;;;;;;10.50;99.90;;;;;;5036841;28;19909;-64
2021/12/16 15:57:47;;;;;;;;;;;10.30;99.90;;;;;;5036220;28;19945;-64
2021/12/16 16:00:15;;;;;;;;;;;10.30;99.90;;;;;;5036725;28;20415;-64
2021/12/16 16:02:41;;;;;;;;;;;10.20;99.90;;;;;;5038003;28;20054;-62
2021/12/16 16:05:07;;;;;;;;;;;10.10;99.90;;;;;;5040825;28;19913;-64
2021/12/16 16:07:35;;;;;;;;;;;9.90;99.90;;;;;;5039948;28;20276;-64
2021/12/16 16:10:01;;;;;;;;;;;10.50;99.90;;;;;;5040820;28;19917;-64
2021/12/16 16:12:30;;;;;;;;;;;10.30;99.90;;;;;;5040714;28;20302;-65
2021/12/16 16:15:01;;;;;;;;;;;10.10;99.90;;;;;;5040635;28;19952;-64
2021/12/16 16:17:28;;;;;;;;;;;9.90;99.90;;;;;;5039879;28;19975;-65
2021/12/16 16:19:55;;;;;;;;;;;9.70;99.90;;;;;;5040523;28;20166;-64
2021/12/16 16:22:20;;;;;;;;;;;9.70;99.90;;;;;;5040258;28;19921;-64
2021/12/16 16:24:48;;;;;;;;;;;9.70;99.90;;;;;;5040448;28;19909;-64
2021/12/16 16:27:16;;;;;;;;;;;9.60;99.90;;;;;;5039809;28;20272;-65
2021/12/16 16:29:46;;;;;;;;;;;9.50;99.90;;;;;;5040387;28;19962;-65
2021/12/16 16:32:12;;;;;;;;;;;9.70;99.90;;;;;;5040338;28;19909;-65
2021/12/16 16:34:41;;;;;;;;;;;9.60;99.90;;;;;;5040317;28;19916;-65
2021/12/16 16:37:07;;;;;;;;;;;9.50;99.90;;;;;;5040250;28;20277;-66
2021/12/16 16:39:48;;;;;;;;;;;9.40;99.90;;;;;;5040289;28;20225;-64
2021/12/16 16:42:14;;;;;;;;;;;9.30;99.90;;;;;;5040152;28;19925;-63
2021/12/16 16:44:44;;;;;;;;;;;9.20;99.90;;;;;;5040057;28;19975;-64
2021/12/16 16:47:15;;;;;;;;;;;9.20;99.90;;;;;;5039300;28;20173;-64
2021/12/16 16:49:48;;;;;;;;;;;9.10;99.90;;;;;;5039189;28;19920;-64
2021/12/16 16:52:16;;;;;;;;;;;9.10;99.90;;;;;;5040020;28;20252;-63
2021/12/16 16:55:07;;;;;;;;;;;9.00;99.90;;;;;;5039933;28;19951;-65
2021/12/16 16:57:35;;;;;;;;;;;9.00;99.90;;;;;;5041923;28;19908;-65
2021/12/16 17:00:11;;;;;;;;;;;9.10;99.90;;;;;;5039382;28;20157;-64
2021/12/16 17:02:48;;;;;;;;;;;9.10;99.90;;;;;;5039615;28;19919;-64
2021/12/16 17:05:14;;;;;;;;;;;9.00;99.90;;;;;;5038927;28;19913;-64
2021/12/16 17:07:46;;;;;;;;;;;8.90;99.90;;;;;;5039676;28;19959;-65
2021/12/16 17:10:40;;;;;;;;;;;8.90;99.90;;;;;;5039796;28;19964;-65
2021/12/16 17:13:09;;;;;;;;;;;8.90;99.90;;;;;;5046039;28;20295;-65
2021/12/16 17:15:42;;;;;;;;;;;8.90;99.90;;;;;;5039586;28;19936;-64
2021/12/16 17:18:16;;;;;;;;;;;8.80;99.90;;;;;;5038943;28;20203;-64
2021/12/16 17:20:42;;;;;;;;;;;8.80;99.90;;;;;;5055514;28;20276;-63
2021/12/16 17:23:13;;;;;;;;;;;8.80;99.90;;;;;;5039537;28;19936;-64
2021/12/16 17:25:39;;;;;;;;;;;8.80;99.90;;;;;;5039326;28;20181;-64
2021/12/16 17:28:04;;;;;;;;;;;8.80;99.90;;;;;;5039215;28;19909;-63
2021/12/16 17:30:33;;;;;;;;;;;8.80;99.90;;;;;;5039357;28;19924;-63
2021/12/16 17:32:59;;;;;;;;;;;8.80;99.90;;;;;;5039201;28;19966;-64
2021/12/16 17:35:30;;;;;;;;;;;8.80;99.90;;;;;;5039156;28;20029;-64
2021/12/16 17:38:04;;;;;;;;;;;8.70;99.90;;;;;;5039309;28;19909;-64
2021/12/16 17:40:37;;;;;;;;;;;8.70;99.90;;;;;;5038983;28;19924;-64
2021/12/16 17:43:06;;;;;;;;;;;8.60;99.90;;;;;;5039081;28;19995;-64
2021/12/16 17:45:32;;;;;;;;;;;8.60;99.90;;;;;;5038935;28;19909;-64
2021/12/16 17:48:01;;;;;;;;;;;8.60;99.90;;;;;;5038053;28;19927;-65
2021/12/16 17:50:29;;;;;;;;;;;8.60;99.90;;;;;;5038058;28;20185;-64
2021/12/16 17:52:56;;;;;;;;;;;8.60;99.90;;;;;;5038131;28;19909;-64
2021/12/16 17:55:24;;;;;;;;;;;8.50;99.90;;;;;;5038697;28;19913;-64
2021/12/16 17:57:54;;;;;;;;;;;8.50;99.90;;;;;;5038612;28;19920;-65
2021/12/16 18:00:22;;;;;;;;;;;8.50;99.90;;;;;;5038561;28;20004;-64
2021/12/16 18:02:48;;;;;;;;;;;8.40;99.90;;;;;;5038686;28;19996;-64
2021/12/16 18:05:14;;;;;;;;;;;8.40;99.90;;;;;;5037837;28;19917;-64
2021/12/16 18:07:41;;;;;;;;;;;8.40;99.90;;;;;;5038625;28;19963;-64
2021/12/16 18:10:07;;;;;;;;;;;8.30;99.90;;;;;;5038539;28;20204;-64
2021/12/16 18:12:37;;;;;;;;;;;8.30;99.90;;;;;;5053823;28;19972;-65
2021/12/16 18:15:11;;;;;;;;;;;8.30;99.90;;;;;;5037694;28;20302;-64
2021/12/16 18:17:42;;;;;;;;;;;8.30;99.90;;;;;;5038503;28;19909;-65
2021/12/16 18:20:16;;;;;;;;;;;8.20;99.90;;;;;;5038370;28;20275;-66
2021/12/16 18:22:42;;;;;;;;;;;8.20;99.90;;;;;;5038671;28;20276;-64
2021/12/16 18:25:08;;;;;;;;;;;8.20;99.90;;;;;;5037618;28;19917;-64
2021/12/16 18:27:36;;;;;;;;;;;8.20;99.90;;;;;;5037588;28;20204;-64